sensor_id;sensor_type;location;lat;lon;timestamp;pressure;altitude;pressure_sealevel;temperature;humidity
27840;BME280;15207;42.182;24.308;2023-03-26T00:00:40;98498.31;;;10.91;88.97
27840;BME280;15207;42.182;24.308;2023-03-26T00:03:08;98500.97;;;10.91;89.26
27840;BME280;15207;42.182;24.308;2023-03-26T00:05:34;98498.84;;;10.95;89.50
27840;BME280;15207;42.182;24.308;2023-03-26T00:08:00;98493.50;;;10.95;89.79
27840;BME280;15207;42.182;24.308;2023-03-26T00:10:26;98495.63;;;10.91;89.79
27840;BME280;15207;42.182;24.308;2023-03-26T00:12:52;98499.72;;;10.95;90.05
27840;BME280;15207;42.182;24.308;2023-03-26T00:15:17;98515.19;;;11.02;89.61
27840;BME280;15207;42.182;24.308;2023-03-26T00:17:43;98514.38;;;10.91;89.21
27840;BME280;15207;42.182;24.308;2023-03-26T00:20:11;98518.47;;;10.76;90.03
27840;BME280;15207;42.182;24.308;2023-03-26T00:22:38;98513.41;;;10.73;90.42
27840;BME280;15207;42.182;24.308;2023-03-26T00:25:04;98522.72;;;10.78;91.25
27840;BME280;15207;42.182;24.308;2023-03-26T00:27:31;98519.31;;;10.76;90.97
27840;BME280;15207;42.182;24.308;2023-03-26T00:29:58;98520.59;;;10.82;91.23
27840;BME280;15207;42.182;24.308;2023-03-26T00:32:26;98524.53;;;10.78;91.58
27840;BME280;15207;42.182;24.308;2023-03-26T00:34:53;98521.16;;;10.76;91.64
27840;BME280;15207;42.182;24.308;2023-03-26T00:37:20;98530.19;;;10.75;92.13
27840;BME280;15207;42.182;24.308;2023-03-26T00:39:55;98552.16;;;10.78;91.57
27840;BME280;15207;42.182;24.308;2023-03-26T00:42:24;98550.31;;;10.59;90.99
27840;BME280;15207;42.182;24.308;2023-03-26T00:44:50;98564.28;;;10.63;91.83
27840;BME280;15207;42.182;24.308;2023-03-26T00:47:19;98568.78;;;10.62;92.89
27840;BME280;15207;42.182;24.308;2023-03-26T00:49:46;98573.03;;;10.75;92.77
27840;BME280;15207;42.182;24.308;2023-03-26T00:52:14;98566.94;;;10.73;92.82
27840;BME280;15207;42.182;24.308;2023-03-26T00:54:44;98558.34;;;10.79;92.50
27840;BME280;15207;42.182;24.308;2023-03-26T00:57:11;98560.06;;;10.80;92.18
27840;BME280;15207;42.182;24.308;2023-03-26T00:59:38;98572.03;;;10.85;91.94
27840;BME280;15207;42.182;24.308;2023-03-26T01:02:04;98568.22;;;11.08;90.54
27840;BME280;15207;42.182;24.308;2023-03-26T01:04:32;98565.13;;;11.13;89.60
27840;BME280;15207;42.182;24.308;2023-03-26T01:07:09;98571.28;;;11.33;88.04
27840;BME280;15207;42.182;24.308;2023-03-26T01:09:39;98560.13;;;11.37;86.88
27840;BME280;15207;42.182;24.308;2023-03-26T01:12:13;98557.41;;;11.57;86.55
27840;BME280;15207;42.182;24.308;2023-03-26T01:14:43;98564.06;;;11.81;85.42
27840;BME280;15207;42.182;24.308;2023-03-26T01:17:08;98571.09;;;11.92;84.17
27840;BME280;15207;42.182;24.308;2023-03-26T01:19:53;98566.34;;;12.14;82.38
27840;BME280;15207;42.182;24.308;2023-03-26T01:22:24;98561.88;;;12.33;81.15
27840;BME280;15207;42.182;24.308;2023-03-26T01:24:51;98561.50;;;12.46;79.63
27840;BME280;15207;42.182;24.308;2023-03-26T01:27:39;98558.53;;;12.67;78.70
27840;BME280;15207;42.182;24.308;2023-03-26T01:33:05;98562.13;;;12.76;77.87
27840;BME280;15207;42.182;24.308;2023-03-26T01:35:46;98562.25;;;12.92;76.90
27840;BME280;15207;42.182;24.308;2023-03-26T01:45:55;98562.94;;;13.57;69.27
27840;BME280;15207;42.182;24.308;2023-03-26T01:48:29;98563.00;;;13.66;67.35
27840;BME280;15207;42.182;24.308;2023-03-26T01:50:56;98564.72;;;13.75;67.09
27840;BME280;15207;42.182;24.308;2023-03-26T01:53:23;98561.78;;;13.86;66.55
27840;BME280;15207;42.182;24.308;2023-03-26T02:01:28;98555.91;;;13.91;65.40
27840;BME280;15207;42.182;24.308;2023-03-26T02:04:20;98556.91;;;13.90;64.14
27840;BME280;15207;42.182;24.308;2023-03-26T02:09:42;98559.97;;;13.42;64.27
27840;BME280;15207;42.182;24.308;2023-03-26T02:12:12;98556.84;;;13.29;64.94
27840;BME280;15207;42.182;24.308;2023-03-26T02:14:38;98559.09;;;13.15;64.96
27840;BME280;15207;42.182;24.308;2023-03-26T02:17:03;98576.69;;;13.09;64.44
27840;BME280;15207;42.182;24.308;2023-03-26T02:19:29;98583.06;;;13.08;63.56
27840;BME280;15207;42.182;24.308;2023-03-26T02:21:54;98573.03;;;13.11;62.19
27840;BME280;15207;42.182;24.308;2023-03-26T02:24:24;98578.06;;;13.14;60.47
27840;BME280;15207;42.182;24.308;2023-03-26T02:26:49;98582.00;;;13.19;59.18
27840;BME280;15207;42.182;24.308;2023-03-26T02:29:15;98588.34;;;13.36;58.85
27840;BME280;15207;42.182;24.308;2023-03-26T02:31:45;98577.59;;;13.36;59.37
27840;BME280;15207;42.182;24.308;2023-03-26T02:34:15;98585.66;;;13.36;59.81
27840;BME280;15207;42.182;24.308;2023-03-26T02:36:40;98592.78;;;13.28;59.00
27840;BME280;15207;42.182;24.308;2023-03-26T02:39:10;98589.28;;;13.27;57.98
27840;BME280;15207;42.182;24.308;2023-03-26T02:41:38;98591.34;;;13.33;58.17
27840;BME280;15207;42.182;24.308;2023-03-26T02:44:04;98576.50;;;13.29;57.44
27840;BME280;15207;42.182;24.308;2023-03-26T02:46:31;98603.25;;;13.31;57.89
27840;BME280;15207;42.182;24.308;2023-03-26T02:48:56;98591.44;;;13.23;57.91
27840;BME280;15207;42.182;24.308;2023-03-26T02:51:23;98595.88;;;13.15;58.50
27840;BME280;15207;42.182;24.308;2023-03-26T02:53:49;98595.06;;;13.14;58.39
27840;BME280;15207;42.182;24.308;2023-03-26T02:56:18;98601.34;;;13.05;58.88
27840;BME280;15207;42.182;24.308;2023-03-26T02:58:44;98598.53;;;13.06;59.18
27840;BME280;15207;42.182;24.308;2023-03-26T03:01:11;98598.53;;;13.06;59.43
27840;BME280;15207;42.182;24.308;2023-03-26T03:03:37;98609.03;;;13.18;58.62
27840;BME280;15207;42.182;24.308;2023-03-26T03:06:03;98608.75;;;13.03;59.33
27840;BME280;15207;42.182;24.308;2023-03-26T03:08:28;98602.66;;;13.01;59.33
27840;BME280;15207;42.182;24.308;2023-03-26T03:11:02;98606.13;;;12.93;59.45
27840;BME280;15207;42.182;24.308;2023-03-26T03:13:28;98614.72;;;12.96;59.65
27840;BME280;15207;42.182;24.308;2023-03-26T03:15:54;98616.72;;;12.94;59.65
27840;BME280;15207;42.182;24.308;2023-03-26T03:18:20;98614.94;;;12.85;60.20
27840;BME280;15207;42.182;24.308;2023-03-26T03:20:46;98613.56;;;12.81;60.08
27840;BME280;15207;42.182;24.308;2023-03-26T03:23:13;98611.13;;;12.88;60.07
27840;BME280;15207;42.182;24.308;2023-03-26T03:25:39;98617.09;;;12.81;59.83
27840;BME280;15207;42.182;24.308;2023-03-26T03:28:05;98623.69;;;12.87;59.87
27840;BME280;15207;42.182;24.308;2023-03-26T03:30:31;98632.91;;;12.85;59.81
27840;BME280;15207;42.182;24.308;2023-03-26T03:32:57;98635.38;;;12.78;59.74
27840;BME280;15207;42.182;24.308;2023-03-26T03:35:25;98638.75;;;12.80;60.33
27840;BME280;15207;42.182;24.308;2023-03-26T03:37:52;98644.81;;;12.82;60.05
27840;BME280;15207;42.182;24.308;2023-03-26T03:40:18;98642.81;;;12.84;60.44
27840;BME280;15207;42.182;24.308;2023-03-26T03:42:45;98642.03;;;12.74;60.08
27840;BME280;15207;42.182;24.308;2023-03-26T03:45:11;98638.34;;;12.75;60.26
27840;BME280;15207;42.182;24.308;2023-03-26T03:47:37;98634.81;;;12.74;60.25
27840;BME280;15207;42.182;24.308;2023-03-26T03:50:03;98639.13;;;12.67;60.54
27840;BME280;15207;42.182;24.308;2023-03-26T03:52:29;98626.31;;;12.61;60.89
27840;BME280;15207;42.182;24.308;2023-03-26T03:54:55;98636.19;;;12.60;61.00
27840;BME280;15207;42.182;24.308;2023-03-26T03:57:22;98643.38;;;12.60;61.52
27840;BME280;15207;42.182;24.308;2023-03-26T03:59:48;98642.41;;;12.61;61.16
27840;BME280;15207;42.182;24.308;2023-03-26T04:02:15;98651.31;;;12.61;61.12
27840;BME280;15207;42.182;24.308;2023-03-26T04:04:51;98650.88;;;12.66;61.43
27840;BME280;15207;42.182;24.308;2023-03-26T04:07:17;98659.28;;;12.53;61.74
27840;BME280;15207;42.182;24.308;2023-03-26T04:09:43;98659.47;;;12.41;62.02
27840;BME280;15207;42.182;24.308;2023-03-26T04:12:09;98664.50;;;12.26;62.78
27840;BME280;15207;42.182;24.308;2023-03-26T04:14:34;98659.25;;;12.25;63.16
27840;BME280;15207;42.182;24.308;2023-03-26T04:17:00;98654.91;;;12.24;63.52
27840;BME280;15207;42.182;24.308;2023-03-26T04:19:26;98656.19;;;12.10;64.44
27840;BME280;15207;42.182;24.308;2023-03-26T04:21:52;98663.88;;;11.95;65.27
27840;BME280;15207;42.182;24.308;2023-03-26T04:24:18;98663.03;;;11.84;66.25
27840;BME280;15207;42.182;24.308;2023-03-26T04:26:47;98666.72;;;11.73;65.87
27840;BME280;15207;42.182;24.308;2023-03-26T04:29:14;98664.47;;;11.78;65.95
27840;BME280;15207;42.182;24.308;2023-03-26T04:31:42;98663.22;;;11.73;66.71
27840;BME280;15207;42.182;24.308;2023-03-26T04:34:13;98664.19;;;11.72;66.76
27840;BME280;15207;42.182;24.308;2023-03-26T04:36:44;98667.72;;;11.72;67.41
27840;BME280;15207;42.182;24.308;2023-03-26T04:39:11;98670.13;;;11.66;67.54
27840;BME280;15207;42.182;24.308;2023-03-26T04:41:37;98679.72;;;11.78;66.57
27840;BME280;15207;42.182;24.308;2023-03-26T04:44:03;98683.78;;;11.82;66.16
27840;BME280;15207;42.182;24.308;2023-03-26T04:46:29;98686.59;;;12.00;65.41
27840;BME280;15207;42.182;24.308;2023-03-26T04:48:57;98687.88;;;11.96;65.13
27840;BME280;15207;42.182;24.308;2023-03-26T04:51:26;98690.41;;;11.98;65.23
27840;BME280;15207;42.182;24.308;2023-03-26T04:53:55;98707.78;;;11.94;65.16
27840;BME280;15207;42.182;24.308;2023-03-26T04:56:38;98704.25;;;12.03;65.02
27840;BME280;15207;42.182;24.308;2023-03-26T04:59:05;98700.72;;;12.12;64.45
27840;BME280;15207;42.182;24.308;2023-03-26T05:01:32;98713.81;;;12.15;64.51
27840;BME280;15207;42.182;24.308;2023-03-26T05:04:01;98699.25;;;12.28;64.48
27840;BME280;15207;42.182;24.308;2023-03-26T05:06:27;98717.44;;;12.34;63.92
27840;BME280;15207;42.182;24.308;2023-03-26T05:08:54;98724.97;;;12.59;63.12
27840;BME280;15207;42.182;24.308;2023-03-26T05:11:20;98724.97;;;12.87;62.18
27840;BME280;15207;42.182;24.308;2023-03-26T05:13:46;98733.75;;;13.25;60.63
27840;BME280;15207;42.182;24.308;2023-03-26T05:16:11;98739.63;;;13.57;58.89
27840;BME280;15207;42.182;24.308;2023-03-26T05:18:37;98749.16;;;13.87;58.16
27840;BME280;15207;42.182;24.308;2023-03-26T05:21:03;98749.69;;;14.18;57.00
27840;BME280;15207;42.182;24.308;2023-03-26T05:23:29;98762.31;;;14.44;56.10
27840;BME280;15207;42.182;24.308;2023-03-26T05:25:55;98770.66;;;14.59;55.10
27840;BME280;15207;42.182;24.308;2023-03-26T05:28:21;98769.13;;;14.64;53.92
27840;BME280;15207;42.182;24.308;2023-03-26T05:30:52;98773.97;;;14.79;53.39
27840;BME280;15207;42.182;24.308;2023-03-26T05:33:21;98790.59;;;15.09;53.01
27840;BME280;15207;42.182;24.308;2023-03-26T05:35:46;98798.91;;;15.32;52.19
27840;BME280;15207;42.182;24.308;2023-03-26T05:38:13;98806.75;;;15.60;51.09
27840;BME280;15207;42.182;24.308;2023-03-26T05:40:39;98812.84;;;15.79;51.02
27840;BME280;15207;42.182;24.308;2023-03-26T05:43:05;98819.56;;;15.83;50.66
27840;BME280;15207;42.182;24.308;2023-03-26T05:45:30;98822.16;;;16.26;49.99
27840;BME280;15207;42.182;24.308;2023-03-26T05:47:56;98822.81;;;16.29;49.90
27840;BME280;15207;42.182;24.308;2023-03-26T05:50:21;98833.78;;;16.27;49.66
27840;BME280;15207;42.182;24.308;2023-03-26T05:52:47;98835.78;;;15.92;50.44
27840;BME280;15207;42.182;24.308;2023-03-26T05:55:13;98836.94;;;15.81;51.01
27840;BME280;15207;42.182;24.308;2023-03-26T05:57:39;98843.19;;;15.81;51.00
27840;BME280;15207;42.182;24.308;2023-03-26T06:00:05;98842.06;;;16.00;50.83
27840;BME280;15207;42.182;24.308;2023-03-26T06:02:35;98846.28;;;15.95;50.69
27840;BME280;15207;42.182;24.308;2023-03-26T06:05:01;98836.69;;;16.17;50.39
27840;BME280;15207;42.182;24.308;2023-03-26T06:07:27;98842.53;;;16.62;49.21
27840;BME280;15207;42.182;24.308;2023-03-26T06:09:53;98840.25;;;17.08;48.46
27840;BME280;15207;42.182;24.308;2023-03-26T06:12:21;98854.50;;;17.65;47.46
27840;BME280;15207;42.182;24.308;2023-03-26T06:14:47;98859.59;;;18.15;45.63
27840;BME280;15207;42.182;24.308;2023-03-26T06:17:12;98848.28;;;18.49;44.20
27840;BME280;15207;42.182;24.308;2023-03-26T06:19:38;98846.25;;;18.67;43.51
27840;BME280;15207;42.182;24.308;2023-03-26T06:22:04;98845.00;;;19.08;42.12
27840;BME280;15207;42.182;24.308;2023-03-26T06:24:30;98847.31;;;19.26;41.82
27840;BME280;15207;42.182;24.308;2023-03-26T06:26:56;98860.13;;;19.32;41.39
27840;BME280;15207;42.182;24.308;2023-03-26T06:29:22;98855.81;;;19.53;40.91
27840;BME280;15207;42.182;24.308;2023-03-26T06:31:47;98841.78;;;19.34;40.08
27840;BME280;15207;42.182;24.308;2023-03-26T06:34:13;98853.88;;;19.16;40.62
27840;BME280;15207;42.182;24.308;2023-03-26T06:36:39;98849.06;;;19.03;40.77
27840;BME280;15207;42.182;24.308;2023-03-26T06:39:05;98854.13;;;18.92;40.69
27840;BME280;15207;42.182;24.308;2023-03-26T06:41:32;98862.66;;;18.88;39.85
27840;BME280;15207;42.182;24.308;2023-03-26T06:43:59;98849.34;;;18.79;39.33
27840;BME280;15207;42.182;24.308;2023-03-26T06:46:24;98862.69;;;18.50;39.78
27840;BME280;15207;42.182;24.308;2023-03-26T06:48:50;98850.13;;;18.34;40.07
27840;BME280;15207;42.182;24.308;2023-03-26T06:51:16;98849.22;;;18.42;40.30
27840;BME280;15207;42.182;24.308;2023-03-26T06:53:42;98857.25;;;18.35;39.85
27840;BME280;15207;42.182;24.308;2023-03-26T06:56:07;98854.31;;;18.21;39.94
27840;BME280;15207;42.182;24.308;2023-03-26T06:58:33;98856.28;;;18.04;40.84
27840;BME280;15207;42.182;24.308;2023-03-26T07:00:59;98844.13;;;18.23;40.86
27840;BME280;15207;42.182;24.308;2023-03-26T07:03:25;98847.53;;;18.41;40.32
27840;BME280;15207;42.182;24.308;2023-03-26T07:05:50;98848.25;;;18.73;40.58
27840;BME280;15207;42.182;24.308;2023-03-26T07:08:15;98851.22;;;18.93;39.16
27840;BME280;15207;42.182;24.308;2023-03-26T07:10:41;98828.50;;;18.94;38.61
27840;BME280;15207;42.182;24.308;2023-03-26T07:13:07;98843.19;;;19.00;38.38
27840;BME280;15207;42.182;24.308;2023-03-26T07:15:32;98840.94;;;18.73;39.16
27840;BME280;15207;42.182;24.308;2023-03-26T07:17:58;98829.00;;;18.98;38.86
27840;BME280;15207;42.182;24.308;2023-03-26T07:20:24;98832.59;;;18.90;39.04
27840;BME280;15207;42.182;24.308;2023-03-26T07:22:50;98834.19;;;18.99;38.86
27840;BME280;15207;42.182;24.308;2023-03-26T07:25:16;98843.84;;;18.87;38.60
27840;BME280;15207;42.182;24.308;2023-03-26T07:27:50;98838.63;;;19.00;38.42
27840;BME280;15207;42.182;24.308;2023-03-26T07:30:21;98835.81;;;19.24;38.53
27840;BME280;15207;42.182;24.308;2023-03-26T07:35:54;98826.59;;;19.40;38.16
27840;BME280;15207;42.182;24.308;2023-03-26T07:38:38;98833.31;;;19.44;37.95
27840;BME280;15207;42.182;24.308;2023-03-26T07:46:31;98825.25;;;19.88;37.52
27840;BME280;15207;42.182;24.308;2023-03-26T07:48:58;98825.72;;;19.54;37.97
27840;BME280;15207;42.182;24.308;2023-03-26T07:51:26;98820.97;;;19.56;38.04
27840;BME280;15207;42.182;24.308;2023-03-26T07:53:52;98829.31;;;19.40;37.92
27840;BME280;15207;42.182;24.308;2023-03-26T07:56:20;98821.94;;;19.34;38.64
27840;BME280;15207;42.182;24.308;2023-03-26T07:59:01;98813.28;;;19.45;37.81
27840;BME280;15207;42.182;24.308;2023-03-26T08:01:50;98822.38;;;19.37;37.62
27840;BME280;15207;42.182;24.308;2023-03-26T08:07:07;98824.66;;;19.34;37.41
27840;BME280;15207;42.182;24.308;2023-03-26T08:13:06;98810.44;;;19.68;36.82
27840;BME280;15207;42.182;24.308;2023-03-26T08:19:03;98806.16;;;19.81;36.91
27840;BME280;15207;42.182;24.308;2023-03-26T08:21:40;98807.72;;;19.90;36.58
27840;BME280;15207;42.182;24.308;2023-03-26T08:24:24;98806.56;;;20.00;36.19
27840;BME280;15207;42.182;24.308;2023-03-26T08:30:21;98804.75;;;20.35;35.22
27840;BME280;15207;42.182;24.308;2023-03-26T08:33:11;98802.34;;;20.47;34.88
27840;BME280;15207;42.182;24.308;2023-03-26T08:35:37;98798.19;;;20.52;34.14
27840;BME280;15207;42.182;24.308;2023-03-26T08:38:08;98797.94;;;20.46;33.86
27840;BME280;15207;42.182;24.308;2023-03-26T09:00:31;98768.31;;;21.43;29.05
27840;BME280;15207;42.182;24.308;2023-03-26T09:11:46;98775.88;;;21.54;28.38
27840;BME280;15207;42.182;24.308;2023-03-26T09:22:50;98758.34;;;22.04;27.81
27840;BME280;15207;42.182;24.308;2023-03-26T09:25:24;98769.88;;;22.19;27.67
27840;BME280;15207;42.182;24.308;2023-03-26T09:34:21;98750.16;;;22.24;25.42
27840;BME280;15207;42.182;24.308;2023-03-26T09:37:17;98756.66;;;22.30;26.06
27840;BME280;15207;42.182;24.308;2023-03-26T09:40:02;98745.50;;;22.52;25.56
27840;BME280;15207;42.182;24.308;2023-03-26T09:42:52;98747.41;;;22.31;25.18
27840;BME280;15207;42.182;24.308;2023-03-26T10:02:41;98731.72;;;21.86;24.84
27840;BME280;15207;42.182;24.308;2023-03-26T10:21:39;98691.66;;;22.06;26.00
27840;BME280;15207;42.182;24.308;2023-03-26T10:26:57;98682.41;;;22.35;26.57
27840;BME280;15207;42.182;24.308;2023-03-26T10:32:20;98684.94;;;22.23;25.81
27840;BME280;15207;42.182;24.308;2023-03-26T10:40:22;98658.31;;;22.11;26.27
27840;BME280;15207;42.182;24.308;2023-03-26T10:56:53;98632.78;;;21.99;26.78
27840;BME280;15207;42.182;24.308;2023-03-26T10:59:19;98623.34;;;21.95;27.17
27840;BME280;15207;42.182;24.308;2023-03-26T11:12:51;98599.13;;;22.32;25.11
27840;BME280;15207;42.182;24.308;2023-03-26T11:21:18;98585.72;;;22.24;25.74
27840;BME280;15207;42.182;24.308;2023-03-26T11:31:52;98567.25;;;22.26;24.05
27840;BME280;15207;42.182;24.308;2023-03-26T11:34:27;98565.81;;;22.16;24.68
27840;BME280;15207;42.182;24.308;2023-03-26T11:36:56;98565.34;;;22.33;24.58
27840;BME280;15207;42.182;24.308;2023-03-26T11:39:26;98564.25;;;22.48;22.71
27840;BME280;15207;42.182;24.308;2023-03-26T11:42:03;98561.31;;;22.49;23.07
27840;BME280;15207;42.182;24.308;2023-03-26T11:44:35;98562.56;;;22.53;23.09
27840;BME280;15207;42.182;24.308;2023-03-26T11:47:05;98559.81;;;22.92;22.14
27840;BME280;15207;42.182;24.308;2023-03-26T11:52:00;98554.53;;;22.97;23.72
27840;BME280;15207;42.182;24.308;2023-03-26T11:54:27;98555.75;;;23.02;23.51
27840;BME280;15207;42.182;24.308;2023-03-26T11:57:06;98544.59;;;22.78;23.40
27840;BME280;15207;42.182;24.308;2023-03-26T11:59:49;98533.25;;;22.74;23.15
27840;BME280;15207;42.182;24.308;2023-03-26T12:02:36;98541.56;;;22.86;22.83
27840;BME280;15207;42.182;24.308;2023-03-26T12:05:19;98543.63;;;22.58;21.17
27840;BME280;15207;42.182;24.308;2023-03-26T12:07:53;98532.13;;;22.56;21.88
27840;BME280;15207;42.182;24.308;2023-03-26T12:12:48;98525.19;;;22.61;21.30
27840;BME280;15207;42.182;24.308;2023-03-26T12:15:18;98528.00;;;22.79;20.90
27840;BME280;15207;42.182;24.308;2023-03-26T12:17:45;98523.16;;;22.81;18.76
27840;BME280;15207;42.182;24.308;2023-03-26T12:22:53;98517.88;;;22.87;19.95
27840;BME280;15207;42.182;24.308;2023-03-26T12:25:27;98516.72;;;22.69;21.30
27840;BME280;15207;42.182;24.308;2023-03-26T12:27:59;98510.16;;;22.38;21.43
27840;BME280;15207;42.182;24.308;2023-03-26T12:30:35;98505.91;;;22.49;22.00
27840;BME280;15207;42.182;24.308;2023-03-26T12:33:09;98510.09;;;22.58;21.42
27840;BME280;15207;42.182;24.308;2023-03-26T12:35:39;98498.16;;;22.45;21.96
27840;BME280;15207;42.182;24.308;2023-03-26T12:41:09;98487.91;;;22.41;21.89
27840;BME280;15207;42.182;24.308;2023-03-26T12:43:42;98480.34;;;22.43;21.31
27840;BME280;15207;42.182;24.308;2023-03-26T12:46:26;98484.16;;;22.74;20.87
27840;BME280;15207;42.182;24.308;2023-03-26T12:48:56;98471.97;;;22.77;20.37
27840;BME280;15207;42.182;24.308;2023-03-26T12:51:43;98470.03;;;22.52;21.20
27840;BME280;15207;42.182;24.308;2023-03-26T12:57:06;98466.22;;;22.85;21.39
27840;BME280;15207;42.182;24.308;2023-03-26T12:59:46;98459.66;;;22.93;21.70
27840;BME280;15207;42.182;24.308;2023-03-26T13:08:04;98460.47;;;23.19;19.46
27840;BME280;15207;42.182;24.308;2023-03-26T13:22:05;98435.44;;;23.03;18.23
27840;BME280;15207;42.182;24.308;2023-03-26T13:32:58;98416.44;;;22.64;17.90
27840;BME280;15207;42.182;24.308;2023-03-26T13:35:35;98415.38;;;22.65;17.67
27840;BME280;15207;42.182;24.308;2023-03-26T13:38:05;98408.22;;;22.71;17.77
27840;BME280;15207;42.182;24.308;2023-03-26T13:40:48;98428.50;;;22.82;17.96
27840;BME280;15207;42.182;24.308;2023-03-26T13:43:52;98421.34;;;22.81;18.86
27840;BME280;15207;42.182;24.308;2023-03-26T13:46:40;98422.63;;;22.78;18.41
27840;BME280;15207;42.182;24.308;2023-03-26T13:49:14;98420.47;;;22.87;18.30
27840;BME280;15207;42.182;24.308;2023-03-26T13:52:03;98414.38;;;22.85;17.31
27840;BME280;15207;42.182;24.308;2023-03-26T13:57:17;98410.69;;;22.79;17.09
27840;BME280;15207;42.182;24.308;2023-03-26T13:59:56;98410.47;;;22.74;18.15
27840;BME280;15207;42.182;24.308;2023-03-26T14:02:36;98422.91;;;22.95;16.86
27840;BME280;15207;42.182;24.308;2023-03-26T14:07:45;98420.41;;;22.68;16.59
27840;BME280;15207;42.182;24.308;2023-03-26T14:10:23;98415.44;;;22.58;17.23
27840;BME280;15207;42.182;24.308;2023-03-26T14:13:18;98423.44;;;22.53;17.67
27840;BME280;15207;42.182;24.308;2023-03-26T14:15:50;98421.75;;;22.52;17.34
27840;BME280;15207;42.182;24.308;2023-03-26T14:18:34;98424.31;;;22.47;17.68
27840;BME280;15207;42.182;24.308;2023-03-26T14:21:13;98419.53;;;22.42;16.72
27840;BME280;15207;42.182;24.308;2023-03-26T14:26:40;98424.75;;;22.44;16.24
27840;BME280;15207;42.182;24.308;2023-03-26T14:29:27;98421.09;;;22.25;15.86
27840;BME280;15207;42.182;24.308;2023-03-26T14:32:06;98421.13;;;22.18;16.21
27840;BME280;15207;42.182;24.308;2023-03-26T14:34:52;98413.22;;;22.10;16.69
27840;BME280;15207;42.182;24.308;2023-03-26T14:51:08;98394.25;;;21.89;18.40
27840;BME280;15207;42.182;24.308;2023-03-26T14:54:09;98393.91;;;21.72;18.46
27840;BME280;15207;42.182;24.308;2023-03-26T15:07:19;98397.69;;;21.71;17.88
27840;BME280;15207;42.182;24.308;2023-03-26T15:29:45;98396.41;;;21.80;18.78
27840;BME280;15207;42.182;24.308;2023-03-26T15:38:14;98388.59;;;21.25;19.69
27840;BME280;15207;42.182;24.308;2023-03-26T15:43:19;98385.72;;;21.06;20.28
27840;BME280;15207;42.182;24.308;2023-03-26T15:49:08;98380.91;;;20.74;20.67
27840;BME280;15207;42.182;24.308;2023-03-26T15:57:06;98383.63;;;20.68;20.93
27840;BME280;15207;42.182;24.308;2023-03-26T16:00:11;98389.06;;;20.54;20.90
27840;BME280;15207;42.182;24.308;2023-03-26T16:06:19;98400.97;;;20.33;21.41
27840;BME280;15207;42.182;24.308;2023-03-26T16:14:22;98398.03;;;20.14;20.76
27840;BME280;15207;42.182;24.308;2023-03-26T16:16:56;98399.50;;;20.17;20.58
27840;BME280;15207;42.182;24.308;2023-03-26T16:19:42;98402.41;;;20.08;20.71
27840;BME280;15207;42.182;24.308;2023-03-26T16:22:36;98410.13;;;20.05;20.57
27840;BME280;15207;42.182;24.308;2023-03-26T16:25:31;98408.84;;;20.01;20.87
27840;BME280;15207;42.182;24.308;2023-03-26T16:33:53;98414.97;;;19.67;21.59
27840;BME280;15207;42.182;24.308;2023-03-26T16:41:24;98425.28;;;19.37;21.71
27840;BME280;15207;42.182;24.308;2023-03-26T16:49:21;98430.31;;;18.83;22.76
27840;BME280;15207;42.182;24.308;2023-03-26T16:54:54;98431.16;;;18.61;24.43
27840;BME280;15207;42.182;24.308;2023-03-26T16:57:36;98435.50;;;18.56;24.20
27840;BME280;15207;42.182;24.308;2023-03-26T17:05:31;98450.72;;;17.98;23.83
27840;BME280;15207;42.182;24.308;2023-03-26T17:08:03;98451.97;;;17.80;24.75
27840;BME280;15207;42.182;24.308;2023-03-26T17:13:37;98459.84;;;17.30;25.69
27840;BME280;15207;42.182;24.308;2023-03-26T17:16:12;98476.25;;;17.28;25.46
27840;BME280;15207;42.182;24.308;2023-03-26T17:21:25;98488.50;;;17.01;26.85
27840;BME280;15207;42.182;24.308;2023-03-26T17:24:08;98495.13;;;16.75;28.10
27840;BME280;15207;42.182;24.308;2023-03-26T17:27:03;98506.16;;;16.42;29.32
27840;BME280;15207;42.182;24.308;2023-03-26T17:30:00;98508.25;;;15.99;30.71
27840;BME280;15207;42.182;24.308;2023-03-26T17:35:43;98502.19;;;15.49;30.53
27840;BME280;15207;42.182;24.308;2023-03-26T17:40:56;98523.09;;;15.47;30.14
27840;BME280;15207;42.182;24.308;2023-03-26T17:43:35;98522.91;;;15.49;29.91
27840;BME280;15207;42.182;24.308;2023-03-26T17:49:11;98507.38;;;15.51;25.81
27840;BME280;15207;42.182;24.308;2023-03-26T17:54:53;98519.41;;;15.40;28.17
27840;BME280;15207;42.182;24.308;2023-03-26T17:59:58;98535.06;;;15.36;28.95
27840;BME280;15207;42.182;24.308;2023-03-26T18:02:54;98539.47;;;15.29;29.09
27840;BME280;15207;42.182;24.308;2023-03-26T18:05:24;98537.31;;;15.24;29.13
27840;BME280;15207;42.182;24.308;2023-03-26T18:18:53;98540.47;;;14.61;30.96
27840;BME280;15207;42.182;24.308;2023-03-26T18:21:36;98550.06;;;14.64;30.81
27840;BME280;15207;42.182;24.308;2023-03-26T18:24:05;98547.72;;;14.69;31.01
27840;BME280;15207;42.182;24.308;2023-03-26T18:26:35;98551.91;;;14.63;31.20
27840;BME280;15207;42.182;24.308;2023-03-26T18:29:24;98549.38;;;14.53;31.29
27840;BME280;15207;42.182;24.308;2023-03-26T18:34:45;98551.19;;;14.36;31.67
27840;BME280;15207;42.182;24.308;2023-03-26T18:39:40;98550.25;;;14.11;32.44
27840;BME280;15207;42.182;24.308;2023-03-26T18:42:17;98556.41;;;13.95;33.22
27840;BME280;15207;42.182;24.308;2023-03-26T18:44:43;98551.63;;;13.80;33.66
27840;BME280;15207;42.182;24.308;2023-03-26T18:47:12;98547.84;;;13.65;34.04
27840;BME280;15207;42.182;24.308;2023-03-26T18:49:37;98549.00;;;13.54;34.54
27840;BME280;15207;42.182;24.308;2023-03-26T18:52:05;98550.91;;;13.43;34.72
27840;BME280;15207;42.182;24.308;2023-03-26T18:54:33;98543.44;;;13.37;34.48
27840;BME280;15207;42.182;24.308;2023-03-26T18:57:10;98538.72;;;13.31;34.76